sensor_id;sensor_type;location;lat;lon;timestamp;pressure;altitude;pressure_sealevel;temperature;humidity
32251;BME280;41295;48.518;9.206;2023-02-19T00:01:06;97716.78;;;11.40;66.58
32251;BME280;41295;48.518;9.206;2023-02-19T00:03:09;97724.91;;;11.32;66.71
32251;BME280;41295;48.518;9.206;2023-02-19T00:05:12;97718.50;;;11.41;66.30
32251;BME280;41295;48.518;9.206;2023-02-19T00:07:15;97714.19;;;11.65;65.66
32251;BME280;41295;48.518;9.206;2023-02-19T00:09:19;97711.88;;;11.58;66.10
32251;BME280;41295;48.518;9.206;2023-02-19T00:11:23;97712.97;;;11.76;65.48
32251;BME280;41295;48.518;9.206;2023-02-19T00:13:26;97709.47;;;11.77;65.25
32251;BME280;41295;48.518;9.206;2023-02-19T00:15:30;97712.69;;;11.58;65.61
32251;BME280;41295;48.518;9.206;2023-02-19T00:17:33;97705.34;;;11.70;65.31
32251;BME280;41295;48.518;9.206;2023-02-19T00:19:36;97709.41;;;11.78;65.30
32251;BME280;41295;48.518;9.206;2023-02-19T00:21:38;97709.16;;;11.85;65.36
32251;BME280;41295;48.518;9.206;2023-02-19T00:23:42;97705.97;;;11.76;65.57
32251;BME280;41295;48.518;9.206;2023-02-19T00:25:45;97707.28;;;11.64;65.69
32251;BME280;41295;48.518;9.206;2023-02-19T00:27:47;97704.28;;;11.75;65.45
32251;BME280;41295;48.518;9.206;2023-02-19T00:29:50;97710.41;;;11.74;65.70
32251;BME280;41295;48.518;9.206;2023-02-19T00:31:53;97703.00;;;11.62;65.33
32251;BME280;41295;48.518;9.206;2023-02-19T00:33:57;97702.38;;;11.55;66.10
32251;BME280;41295;48.518;9.206;2023-02-19T00:36:01;97704.72;;;11.63;66.12
32251;BME280;41295;48.518;9.206;2023-02-19T00:38:04;97701.31;;;11.61;65.89
32251;BME280;41295;48.518;9.206;2023-02-19T00:40:08;97700.75;;;11.51;66.05
32251;BME280;41295;48.518;9.206;2023-02-19T00:42:11;97697.66;;;11.65;65.72
32251;BME280;41295;48.518;9.206;2023-02-19T00:44:14;97696.78;;;11.66;65.80
32251;BME280;41295;48.518;9.206;2023-02-19T00:46:18;97691.44;;;11.69;65.75
32251;BME280;41295;48.518;9.206;2023-02-19T00:48:21;97695.34;;;11.57;66.09
32251;BME280;41295;48.518;9.206;2023-02-19T00:50:23;97689.69;;;11.70;65.81
32251;BME280;41295;48.518;9.206;2023-02-19T00:52:26;97692.16;;;11.47;66.38
32251;BME280;41295;48.518;9.206;2023-02-19T00:54:28;97697.03;;;11.58;65.94
32251;BME280;41295;48.518;9.206;2023-02-19T00:56:33;97695.59;;;11.49;66.26
32251;BME280;41295;48.518;9.206;2023-02-19T00:58:36;97696.50;;;11.48;66.42
32251;BME280;41295;48.518;9.206;2023-02-19T01:00:39;97700.94;;;11.46;66.59
32251;BME280;41295;48.518;9.206;2023-02-19T01:02:41;97708.44;;;11.55;66.22
32251;BME280;41295;48.518;9.206;2023-02-19T01:04:44;97708.53;;;11.52;66.51
32251;BME280;41295;48.518;9.206;2023-02-19T01:06:46;97707.22;;;11.66;65.89
32251;BME280;41295;48.518;9.206;2023-02-19T01:08:50;97706.16;;;11.72;65.65
32251;BME280;41295;48.518;9.206;2023-02-19T01:10:52;97702.84;;;11.66;65.79
32251;BME280;41295;48.518;9.206;2023-02-19T01:12:56;97694.97;;;11.68;65.40
32251;BME280;41295;48.518;9.206;2023-02-19T01:14:59;97696.50;;;11.74;65.37
32251;BME280;41295;48.518;9.206;2023-02-19T01:17:02;97698.94;;;11.78;65.46
32251;BME280;41295;48.518;9.206;2023-02-19T01:19:06;97700.81;;;11.75;65.58
32251;BME280;41295;48.518;9.206;2023-02-19T01:21:12;97695.47;;;11.78;65.11
32251;BME280;41295;48.518;9.206;2023-02-19T01:23:15;97690.56;;;11.69;65.63
32251;BME280;41295;48.518;9.206;2023-02-19T01:25:18;97688.00;;;11.67;65.34
32251;BME280;41295;48.518;9.206;2023-02-19T01:27:21;97692.28;;;11.70;65.50
32251;BME280;41295;48.518;9.206;2023-02-19T01:29:24;97682.53;;;11.75;65.30
32251;BME280;41295;48.518;9.206;2023-02-19T01:31:27;97673.78;;;11.76;65.45
32251;BME280;41295;48.518;9.206;2023-02-19T01:33:31;97672.59;;;11.85;64.81
32251;BME280;41295;48.518;9.206;2023-02-19T01:35:37;97689.34;;;11.79;65.12
32251;BME280;41295;48.518;9.206;2023-02-19T01:37:40;97676.13;;;11.84;64.94
32251;BME280;41295;48.518;9.206;2023-02-19T01:39:42;97684.34;;;11.73;65.44
32251;BME280;41295;48.518;9.206;2023-02-19T01:41:45;97683.97;;;11.58;65.71
32251;BME280;41295;48.518;9.206;2023-02-19T01:43:59;97676.06;;;11.61;65.33
32251;BME280;41295;48.518;9.206;2023-02-19T01:46:03;97676.00;;;11.63;65.62
32251;BME280;41295;48.518;9.206;2023-02-19T01:48:08;97673.00;;;11.74;65.27
32251;BME280;41295;48.518;9.206;2023-02-19T01:50:13;97674.63;;;11.76;64.95
32251;BME280;41295;48.518;9.206;2023-02-19T01:52:22;97656.88;;;11.86;64.58
32251;BME280;41295;48.518;9.206;2023-02-19T01:54:27;97646.91;;;11.72;65.04
32251;BME280;41295;48.518;9.206;2023-02-19T01:56:32;97655.41;;;11.77;64.58
32251;BME280;41295;48.518;9.206;2023-02-19T01:58:36;97654.81;;;11.71;64.99
32251;BME280;41295;48.518;9.206;2023-02-19T02:00:39;97659.41;;;11.64;64.95
32251;BME280;41295;48.518;9.206;2023-02-19T02:02:47;97646.91;;;11.72;65.04
32251;BME280;41295;48.518;9.206;2023-02-19T02:04:51;97646.28;;;11.65;64.68
32251;BME280;41295;48.518;9.206;2023-02-19T02:06:55;97652.13;;;11.72;65.11
32251;BME280;41295;48.518;9.206;2023-02-19T02:08:59;97657.72;;;11.63;64.74
32251;BME280;41295;48.518;9.206;2023-02-19T02:11:19;97646.28;;;11.65;64.85
32251;BME280;41295;48.518;9.206;2023-02-19T02:13:22;97662.13;;;11.61;65.32
32251;BME280;41295;48.518;9.206;2023-02-19T02:15:28;97653.25;;;11.65;64.85
32251;BME280;41295;48.518;9.206;2023-02-19T02:17:45;97655.47;;;11.52;65.33
32251;BME280;41295;48.518;9.206;2023-02-19T02:20:05;97652.47;;;11.63;64.51
32251;BME280;41295;48.518;9.206;2023-02-19T02:22:17;97659.84;;;11.51;65.29
32251;BME280;41295;48.518;9.206;2023-02-19T02:27:26;97664.88;;;11.56;64.61
32251;BME280;41295;48.518;9.206;2023-02-19T02:32:10;97665.84;;;11.79;63.92
32251;BME280;41295;48.518;9.206;2023-02-19T02:34:17;97669.78;;;11.65;63.99
32251;BME280;41295;48.518;9.206;2023-02-19T02:36:26;97660.38;;;11.61;64.24
32251;BME280;41295;48.518;9.206;2023-02-19T02:38:32;97651.19;;;11.75;63.38
32251;BME280;41295;48.518;9.206;2023-02-19T02:40:38;97665.59;;;11.61;63.90
32251;BME280;41295;48.518;9.206;2023-02-19T02:42:43;97668.59;;;11.74;63.70
32251;BME280;41295;48.518;9.206;2023-02-19T02:44:46;97667.91;;;11.69;63.75
32251;BME280;41295;48.518;9.206;2023-02-19T02:47:10;97650.38;;;11.73;63.43
32251;BME280;41295;48.518;9.206;2023-02-19T02:49:33;97651.81;;;11.58;64.08
32251;BME280;41295;48.518;9.206;2023-02-19T02:51:57;97636.69;;;11.66;63.73
32251;BME280;41295;48.518;9.206;2023-02-19T02:54:25;97655.41;;;11.53;63.99
32251;BME280;41295;48.518;9.206;2023-02-19T02:56:48;97648.38;;;11.55;63.66
32251;BME280;41295;48.518;9.206;2023-02-19T02:58:52;97642.78;;;11.41;64.17
32251;BME280;41295;48.518;9.206;2023-02-19T03:00:59;97641.50;;;11.53;63.47
32251;BME280;41295;48.518;9.206;2023-02-19T03:03:24;97641.00;;;11.67;63.01
32251;BME280;41295;48.518;9.206;2023-02-19T03:05:28;97630.78;;;11.61;62.77
32251;BME280;41295;48.518;9.206;2023-02-19T03:07:48;97636.00;;;11.61;62.40
32251;BME280;41295;48.518;9.206;2023-02-19T03:09:54;97619.66;;;11.55;62.37
32251;BME280;41295;48.518;9.206;2023-02-19T03:12:01;97614.94;;;11.41;62.34
32251;BME280;41295;48.518;9.206;2023-02-19T03:14:26;97613.28;;;11.39;63.04
32251;BME280;41295;48.518;9.206;2023-02-19T03:16:50;97612.81;;;11.51;62.29
32251;BME280;41295;48.518;9.206;2023-02-19T03:19:15;97615.81;;;11.40;62.70
32251;BME280;41295;48.518;9.206;2023-02-19T03:21:21;97618.22;;;11.47;62.51
32251;BME280;41295;48.518;9.206;2023-02-19T03:23:26;97628.50;;;11.51;62.02
32251;BME280;41295;48.518;9.206;2023-02-19T03:25:45;97617.88;;;11.56;62.47
32251;BME280;41295;48.518;9.206;2023-02-19T03:28:16;97627.69;;;11.49;62.53
32251;BME280;41295;48.518;9.206;2023-02-19T03:30:22;97617.63;;;11.38;62.74
32251;BME280;41295;48.518;9.206;2023-02-19T03:32:29;97612.94;;;11.48;62.80
32251;BME280;41295;48.518;9.206;2023-02-19T03:34:37;97617.91;;;11.30;62.76
32251;BME280;41295;48.518;9.206;2023-02-19T03:36:45;97617.69;;;11.37;63.13
32251;BME280;41295;48.518;9.206;2023-02-19T03:38:53;97618.72;;;11.33;63.10
32251;BME280;41295;48.518;9.206;2023-02-19T03:41:03;97617.69;;;11.37;62.84
32251;BME280;41295;48.518;9.206;2023-02-19T03:43:15;97623.63;;;11.16;63.44
32251;BME280;41295;48.518;9.206;2023-02-19T03:45:26;97629.47;;;11.23;63.61
32251;BME280;41295;48.518;9.206;2023-02-19T03:47:31;97631.03;;;11.29;63.66
32251;BME280;41295;48.518;9.206;2023-02-19T03:49:43;97631.97;;;11.26;63.80
32251;BME280;41295;48.518;9.206;2023-02-19T03:51:52;97621.91;;;11.15;63.75
32251;BME280;41295;48.518;9.206;2023-02-19T03:54:05;97623.19;;;11.03;64.59
32251;BME280;41295;48.518;9.206;2023-02-19T03:56:18;97631.53;;;11.13;64.23
32251;BME280;41295;48.518;9.206;2023-02-19T03:58:25;97631.66;;;11.10;64.24
32251;BME280;41295;48.518;9.206;2023-02-19T04:00:32;97645.09;;;11.25;63.87
32251;BME280;41295;48.518;9.206;2023-02-19T04:02:43;97633.31;;;11.13;64.63
32251;BME280;41295;48.518;9.206;2023-02-19T04:04:52;97637.66;;;11.12;64.08
32251;BME280;41295;48.518;9.206;2023-02-19T04:06:57;97644.22;;;11.24;63.61
32251;BME280;41295;48.518;9.206;2023-02-19T04:09:03;97642.41;;;11.26;63.33
32251;BME280;41295;48.518;9.206;2023-02-19T04:11:08;97646.53;;;11.34;62.90
32251;BME280;41295;48.518;9.206;2023-02-19T04:13:16;97642.91;;;11.38;63.19
32251;BME280;41295;48.518;9.206;2023-02-19T04:15:23;97647.53;;;11.29;63.14
32251;BME280;41295;48.518;9.206;2023-02-19T04:17:30;97650.25;;;11.26;63.37
32251;BME280;41295;48.518;9.206;2023-02-19T04:19:36;97646.78;;;11.26;63.25
32251;BME280;41295;48.518;9.206;2023-02-19T04:21:43;97649.66;;;11.18;63.81
32251;BME280;41295;48.518;9.206;2023-02-19T04:23:47;97648.91;;;11.14;63.82
32251;BME280;41295;48.518;9.206;2023-02-19T04:25:53;97650.97;;;11.04;64.22
32251;BME280;41295;48.518;9.206;2023-02-19T04:27:57;97662.50;;;10.99;64.34
32251;BME280;41295;48.518;9.206;2023-02-19T04:30:00;97658.78;;;11.04;64.75
32251;BME280;41295;48.518;9.206;2023-02-19T04:32:03;97658.03;;;11.01;64.53
32251;BME280;41295;48.518;9.206;2023-02-19T04:34:06;97660.81;;;10.96;64.68
32251;BME280;41295;48.518;9.206;2023-02-19T04:36:09;97671.59;;;11.12;64.28
32251;BME280;41295;48.518;9.206;2023-02-19T04:38:13;97680.47;;;11.06;64.30
32251;BME280;41295;48.518;9.206;2023-02-19T04:40:16;97672.25;;;10.92;65.26
32251;BME280;41295;48.518;9.206;2023-02-19T04:42:19;97679.38;;;10.87;65.51
32251;BME280;41295;48.518;9.206;2023-02-19T04:44:21;97679.88;;;10.98;65.06
32251;BME280;41295;48.518;9.206;2023-02-19T04:46:24;97687.72;;;10.98;64.90
32251;BME280;41295;48.518;9.206;2023-02-19T04:48:27;97688.28;;;10.79;65.68
32251;BME280;41295;48.518;9.206;2023-02-19T04:50:29;97695.31;;;11.04;65.01
32251;BME280;41295;48.518;9.206;2023-02-19T04:52:32;97689.69;;;11.17;64.70
32251;BME280;41295;48.518;9.206;2023-02-19T04:54:37;97695.91;;;11.14;65.20
32251;BME280;41295;48.518;9.206;2023-02-19T04:56:39;97687.81;;;10.95;65.70
32251;BME280;41295;48.518;9.206;2023-02-19T04:58:43;97695.19;;;10.82;66.26
32251;BME280;41295;48.518;9.206;2023-02-19T05:00:46;97699.44;;;10.85;66.47
32251;BME280;41295;48.518;9.206;2023-02-19T05:02:52;97701.56;;;11.00;65.94
32251;BME280;41295;48.518;9.206;2023-02-19T05:04:54;97696.94;;;11.09;65.37
32251;BME280;41295;48.518;9.206;2023-02-19T05:06:57;97706.56;;;11.06;65.65
32251;BME280;41295;48.518;9.206;2023-02-19T05:08:59;97705.13;;;10.98;66.43
32251;BME280;41295;48.518;9.206;2023-02-19T05:11:05;97710.94;;;10.79;66.75
32251;BME280;41295;48.518;9.206;2023-02-19T05:13:07;97709.03;;;10.84;66.86
32251;BME280;41295;48.518;9.206;2023-02-19T05:15:10;97708.00;;;10.90;66.89
32251;BME280;41295;48.518;9.206;2023-02-19T05:17:13;97705.84;;;10.74;67.49
32251;BME280;41295;48.518;9.206;2023-02-19T05:19:15;97702.31;;;10.77;66.78
32251;BME280;41295;48.518;9.206;2023-02-19T05:21:18;97708.13;;;10.85;66.95
32251;BME280;41295;48.518;9.206;2023-02-19T05:23:20;97712.13;;;10.95;66.63
32251;BME280;41295;48.518;9.206;2023-02-19T05:25:23;97698.25;;;10.95;66.49
32251;BME280;41295;48.518;9.206;2023-02-19T05:27:29;97711.34;;;10.93;66.73
32251;BME280;41295;48.518;9.206;2023-02-19T05:29:31;97710.78;;;10.83;67.09
32251;BME280;41295;48.518;9.206;2023-02-19T05:31:34;97709.81;;;10.59;67.48
32251;BME280;41295;48.518;9.206;2023-02-19T05:33:37;97714.69;;;10.70;67.38
32251;BME280;41295;48.518;9.206;2023-02-19T05:35:41;97714.44;;;10.78;66.91
32251;BME280;41295;48.518;9.206;2023-02-19T05:37:44;97718.91;;;10.74;67.01
32251;BME280;41295;48.518;9.206;2023-02-19T05:39:47;97731.75;;;10.80;66.91
32251;BME280;41295;48.518;9.206;2023-02-19T05:41:50;97725.06;;;10.72;67.53
32251;BME280;41295;48.518;9.206;2023-02-19T05:43:54;97733.44;;;10.81;67.17
32251;BME280;41295;48.518;9.206;2023-02-19T05:45:57;97732.19;;;10.95;66.57
32251;BME280;41295;48.518;9.206;2023-02-19T05:48:00;97742.56;;;10.68;67.55
32251;BME280;41295;48.518;9.206;2023-02-19T05:50:03;97742.09;;;10.83;67.46
32251;BME280;41295;48.518;9.206;2023-02-19T05:52:06;97732.78;;;10.75;67.51
32251;BME280;41295;48.518;9.206;2023-02-19T05:54:09;97729.19;;;10.79;67.21
32251;BME280;41295;48.518;9.206;2023-02-19T05:56:23;97724.75;;;10.81;67.49
32251;BME280;41295;48.518;9.206;2023-02-19T05:58:27;97729.97;;;10.82;67.11
32251;BME280;41295;48.518;9.206;2023-02-19T06:00:31;97733.13;;;10.64;67.74
32251;BME280;41295;48.518;9.206;2023-02-19T06:02:35;97735.22;;;10.52;68.36
32251;BME280;41295;48.518;9.206;2023-02-19T06:04:37;97737.94;;;10.48;68.73
32251;BME280;41295;48.518;9.206;2023-02-19T06:06:40;97737.81;;;10.81;67.29
32251;BME280;41295;48.518;9.206;2023-02-19T06:08:47;97735.72;;;10.64;68.11
32251;BME280;41295;48.518;9.206;2023-02-19T06:10:49;97741.94;;;10.59;68.24
32251;BME280;41295;48.518;9.206;2023-02-19T06:12:52;97740.19;;;10.89;66.76
32251;BME280;41295;48.518;9.206;2023-02-19T06:14:55;97744.22;;;10.70;67.47
32251;BME280;41295;48.518;9.206;2023-02-19T06:16:59;97740.28;;;10.57;68.12
32251;BME280;41295;48.518;9.206;2023-02-19T06:19:02;97744.47;;;10.63;67.50
32251;BME280;41295;48.518;9.206;2023-02-19T06:21:07;97754.59;;;10.72;67.24
32251;BME280;41295;48.518;9.206;2023-02-19T06:23:10;97757.22;;;10.72;67.42
32251;BME280;41295;48.518;9.206;2023-02-19T06:25:13;97758.72;;;10.79;67.02
32251;BME280;41295;48.518;9.206;2023-02-19T06:27:15;97763.88;;;10.82;66.37
32251;BME280;41295;48.518;9.206;2023-02-19T06:29:18;97768.31;;;10.79;66.75
32251;BME280;41295;48.518;9.206;2023-02-19T06:31:21;97759.22;;;10.92;66.25
32251;BME280;41295;48.518;9.206;2023-02-19T06:33:26;97778.63;;;10.83;66.40
32251;BME280;41295;48.518;9.206;2023-02-19T06:35:29;97782.84;;;10.88;66.52
32251;BME280;41295;48.518;9.206;2023-02-19T06:37:31;97788.56;;;10.70;66.57
32251;BME280;41295;48.518;9.206;2023-02-19T06:39:34;97799.03;;;10.69;66.78
32251;BME280;41295;48.518;9.206;2023-02-19T06:41:37;97797.97;;;10.76;66.56
32251;BME280;41295;48.518;9.206;2023-02-19T06:43:40;97802.47;;;10.71;66.72
32251;BME280;41295;48.518;9.206;2023-02-19T06:45:43;97805.06;;;10.71;66.76
32251;BME280;41295;48.518;9.206;2023-02-19T06:47:45;97812.56;;;10.82;66.77
32251;BME280;41295;48.518;9.206;2023-02-19T06:49:49;97813.34;;;10.86;66.11
32251;BME280;41295;48.518;9.206;2023-02-19T06:51:52;97814.41;;;10.78;66.60
32251;BME280;41295;48.518;9.206;2023-02-19T06:53:54;97820.50;;;10.79;66.27
32251;BME280;41295;48.518;9.206;2023-02-19T06:55:59;97832.13;;;10.67;67.02
32251;BME280;41295;48.518;9.206;2023-02-19T06:58:02;97845.06;;;10.72;67.10
32251;BME280;41295;48.518;9.206;2023-02-19T07:00:05;97841.72;;;10.66;68.03
32251;BME280;41295;48.518;9.206;2023-02-19T07:02:09;97848.28;;;10.50;68.22
32251;BME280;41295;48.518;9.206;2023-02-19T07:04:12;97850.72;;;10.54;68.50
32251;BME280;41295;48.518;9.206;2023-02-19T07:06:16;97848.28;;;10.50;68.39
32251;BME280;41295;48.518;9.206;2023-02-19T07:08:20;97859.59;;;10.47;68.49
32251;BME280;41295;48.518;9.206;2023-02-19T07:10:22;97866.19;;;10.62;67.88
32251;BME280;41295;48.518;9.206;2023-02-19T07:12:25;97857.72;;;10.54;68.12
32251;BME280;41295;48.518;9.206;2023-02-19T07:14:27;97872.84;;;10.73;66.39
32251;BME280;41295;48.518;9.206;2023-02-19T07:16:30;97870.91;;;10.48;67.36
32251;BME280;41295;48.518;9.206;2023-02-19T07:18:33;97874.25;;;10.53;67.40
32251;BME280;41295;48.518;9.206;2023-02-19T07:20:36;97870.38;;;10.68;67.35
32251;BME280;41295;48.518;9.206;2023-02-19T07:22:40;97869.69;;;10.61;67.74
32251;BME280;41295;48.518;9.206;2023-02-19T07:24:43;97878.63;;;10.52;68.36
32251;BME280;41295;48.518;9.206;2023-02-19T07:26:48;97881.97;;;10.57;68.70
32251;BME280;41295;48.518;9.206;2023-02-19T07:28:51;97882.00;;;10.56;68.40
32251;BME280;41295;48.518;9.206;2023-02-19T07:30:54;97888.00;;;10.58;68.45
32251;BME280;41295;48.518;9.206;2023-02-19T07:33:01;97880.53;;;10.44;69.01
32251;BME280;41295;48.518;9.206;2023-02-19T07:35:04;97883.06;;;10.47;68.65
32251;BME280;41295;48.518;9.206;2023-02-19T07:37:06;97880.03;;;10.31;69.12
32251;BME280;41295;48.518;9.206;2023-02-19T07:39:12;97891.34;;;10.30;69.54
32251;BME280;41295;48.518;9.206;2023-02-19T07:41:15;97893.19;;;10.26;68.84
32251;BME280;41295;48.518;9.206;2023-02-19T07:43:18;97901.59;;;10.38;68.38
32251;BME280;41295;48.518;9.206;2023-02-19T07:45:21;97899.34;;;10.22;68.84
32251;BME280;41295;48.518;9.206;2023-02-19T07:47:24;97897.97;;;10.42;68.33
32251;BME280;41295;48.518;9.206;2023-02-19T07:49:26;97893.91;;;10.31;68.69
32251;BME280;41295;48.518;9.206;2023-02-19T07:51:29;97897.72;;;10.53;67.82
32251;BME280;41295;48.518;9.206;2023-02-19T07:53:32;97897.97;;;10.43;66.81
32251;BME280;41295;48.518;9.206;2023-02-19T07:55:36;97899.78;;;10.40;67.08
32251;BME280;41295;48.518;9.206;2023-02-19T07:57:39;97893.53;;;10.45;66.57
32251;BME280;41295;48.518;9.206;2023-02-19T07:59:41;97890.81;;;10.52;65.37
32251;BME280;41295;48.518;9.206;2023-02-19T08:01:44;97892.53;;;10.51;65.11
32251;BME280;41295;48.518;9.206;2023-02-19T08:04:04;97887.38;;;10.50;65.06
32251;BME280;41295;48.518;9.206;2023-02-19T08:06:07;97891.78;;;10.48;64.90
32251;BME280;41295;48.518;9.206;2023-02-19T08:08:13;97898.75;;;10.45;65.08
32251;BME280;41295;48.518;9.206;2023-02-19T08:10:15;97895.06;;;10.54;64.11
32251;BME280;41295;48.518;9.206;2023-02-19T08:12:37;97902.31;;;10.43;64.30
32251;BME280;41295;48.518;9.206;2023-02-19T08:14:57;97904.91;;;10.43;64.59
32251;BME280;41295;48.518;9.206;2023-02-19T08:17:00;97905.78;;;10.43;64.23
32251;BME280;41295;48.518;9.206;2023-02-19T08:19:03;97905.44;;;10.57;63.37
32251;BME280;41295;48.518;9.206;2023-02-19T08:21:06;97905.53;;;10.53;63.61
32251;BME280;41295;48.518;9.206;2023-02-19T08:23:10;97907.03;;;10.62;62.51
32251;BME280;41295;48.518;9.206;2023-02-19T08:25:12;97913.16;;;10.61;63.11
32251;BME280;41295;48.518;9.206;2023-02-19T08:27:15;97909.31;;;10.74;62.50
32251;BME280;41295;48.518;9.206;2023-02-19T08:29:19;97910.56;;;10.61;62.63
32251;BME280;41295;48.518;9.206;2023-02-19T08:31:22;97909.34;;;10.73;62.99
32251;BME280;41295;48.518;9.206;2023-02-19T08:33:24;97922.88;;;10.55;64.14
32251;BME280;41295;48.518;9.206;2023-02-19T08:35:27;97913.56;;;10.45;65.16
32251;BME280;41295;48.518;9.206;2023-02-19T08:37:30;97920.56;;;10.43;65.36
32251;BME280;41295;48.518;9.206;2023-02-19T08:39:32;97932.19;;;10.31;66.25
32251;BME280;41295;48.518;9.206;2023-02-19T08:41:35;97926.97;;;10.31;66.25
32251;BME280;41295;48.518;9.206;2023-02-19T08:43:38;97932.91;;;10.34;65.36
32251;BME280;41295;48.518;9.206;2023-02-19T08:45:43;97930.78;;;10.52;65.02
32251;BME280;41295;48.518;9.206;2023-02-19T08:47:47;97932.59;;;10.47;65.84
32251;BME280;41295;48.518;9.206;2023-02-19T08:49:50;97920.66;;;10.38;66.56
32251;BME280;41295;48.518;9.206;2023-02-19T08:51:52;97932.19;;;10.29;66.89
32251;BME280;41295;48.518;9.206;2023-02-19T08:53:55;97937.69;;;10.18;67.48
32251;BME280;41295;48.518;9.206;2023-02-19T08:55:58;97947.88;;;10.28;66.91
32251;BME280;41295;48.518;9.206;2023-02-19T08:58:00;97946.94;;;10.30;67.43
32251;BME280;41295;48.518;9.206;2023-02-19T09:00:04;97956.25;;;10.41;66.51
32251;BME280;41295;48.518;9.206;2023-02-19T09:02:09;97958.38;;;10.25;67.12
32251;BME280;41295;48.518;9.206;2023-02-19T09:04:13;97957.59;;;10.21;67.01
32251;BME280;41295;48.518;9.206;2023-02-19T09:06:17;97960.81;;;10.32;65.83
32251;BME280;41295;48.518;9.206;2023-02-19T09:08:20;97958.56;;;10.53;64.61
32251;BME280;41295;48.518;9.206;2023-02-19T09:10:23;97953.75;;;10.36;65.18
32251;BME280;41295;48.518;9.206;2023-02-19T09:12:26;97951.31;;;10.30;65.26
32251;BME280;41295;48.518;9.206;2023-02-19T09:14:30;97950.28;;;10.35;65.27
32251;BME280;41295;48.518;9.206;2023-02-19T09:16:33;97949.59;;;10.29;66.09
32251;BME280;41295;48.518;9.206;2023-02-19T09:18:37;97954.34;;;10.13;66.45
32251;BME280;41295;48.518;9.206;2023-02-19T09:20:40;97951.25;;;10.31;65.64
32251;BME280;41295;48.518;9.206;2023-02-19T09:22:42;97955.81;;;10.58;63.91
32251;BME280;41295;48.518;9.206;2023-02-19T09:24:45;97958.66;;;10.50;64.64
32251;BME280;41295;48.518;9.206;2023-02-19T09:26:47;97961.25;;;10.50;64.16
32251;BME280;41295;48.518;9.206;2023-02-19T09:28:50;97968.38;;;10.42;64.73
32251;BME280;41295;48.518;9.206;2023-02-19T09:30:53;97973.44;;;10.50;63.86
32251;BME280;41295;48.518;9.206;2023-02-19T09:32:57;97980.09;;;10.25;65.06
32251;BME280;41295;48.518;9.206;2023-02-19T09:35:00;97987.06;;;10.25;64.55
32251;BME280;41295;48.518;9.206;2023-02-19T09:37:04;97990.28;;;10.34;65.33
32251;BME280;41295;48.518;9.206;2023-02-19T09:39:08;97993.19;;;10.22;66.00
32251;BME280;41295;48.518;9.206;2023-02-19T09:41:17;97998.59;;;10.14;66.31
32251;BME280;41295;48.518;9.206;2023-02-19T09:43:25;98003.69;;;10.19;66.44
32251;BME280;41295;48.518;9.206;2023-02-19T09:45:29;98012.69;;;10.43;66.45
32251;BME280;41295;48.518;9.206;2023-02-19T09:47:32;98013.78;;;10.33;67.47
32251;BME280;41295;48.518;9.206;2023-02-19T09:49:38;98015.81;;;10.21;67.77
32251;BME280;41295;48.518;9.206;2023-02-19T09:51:45;98018.41;;;10.21;68.98
32251;BME280;41295;48.518;9.206;2023-02-19T09:53:49;98026.31;;;10.17;69.21
32251;BME280;41295;48.518;9.206;2023-02-19T09:55:54;98013.47;;;10.10;70.10
32251;BME280;41295;48.518;9.206;2023-02-19T09:57:58;98025.53;;;10.13;69.63
32251;BME280;41295;48.518;9.206;2023-02-19T10:00:05;98020.75;;;10.32;69.68
32251;BME280;41295;48.518;9.206;2023-02-19T10:02:13;98019.53;;;10.46;68.94
32251;BME280;41295;48.518;9.206;2023-02-19T10:04:17;98025.19;;;10.29;69.97
32251;BME280;41295;48.518;9.206;2023-02-19T10:06:21;98025.28;;;10.24;69.96
32251;BME280;41295;48.518;9.206;2023-02-19T10:08:25;98024.84;;;10.43;68.80
32251;BME280;41295;48.518;9.206;2023-02-19T10:10:31;98024.16;;;10.34;68.63
32251;BME280;41295;48.518;9.206;2023-02-19T10:12:34;98022.19;;;10.44;67.35
32251;BME280;41295;48.518;9.206;2023-02-19T10:14:40;98028.06;;;10.54;68.23
32251;BME280;41295;48.518;9.206;2023-02-19T10:16:47;98029.94;;;10.49;65.34
32251;BME280;41295;48.518;9.206;2023-02-19T10:18:50;98021.06;;;10.56;64.39
32251;BME280;41295;48.518;9.206;2023-02-19T10:20:54;98028.78;;;10.61;64.11
32251;BME280;41295;48.518;9.206;2023-02-19T10:23:01;98024.84;;;10.78;63.21
32251;BME280;41295;48.518;9.206;2023-02-19T10:25:06;98028.09;;;10.88;62.86
32251;BME280;41295;48.518;9.206;2023-02-19T10:27:11;98028.94;;;10.88;61.79
32251;BME280;41295;48.518;9.206;2023-02-19T10:29:14;98032.50;;;10.86;62.72
32251;BME280;41295;48.518;9.206;2023-02-19T10:31:18;98042.69;;;10.60;63.20
32251;BME280;41295;48.518;9.206;2023-02-19T10:33:22;98034.78;;;10.65;64.46
32251;BME280;41295;48.518;9.206;2023-02-19T10:35:25;98043.38;;;10.67;65.80
32251;BME280;41295;48.518;9.206;2023-02-19T10:37:28;98044.44;;;10.59;66.03
32251;BME280;41295;48.518;9.206;2023-02-19T10:39:39;98049.09;;;10.81;65.44
32251;BME280;41295;48.518;9.206;2023-02-19T10:41:44;98070.13;;;10.77;66.12
32251;BME280;41295;48.518;9.206;2023-02-19T10:43:51;98075.72;;;10.61;67.48
32251;BME280;41295;48.518;9.206;2023-02-19T10:45:57;98080.22;;;10.54;68.74
32251;BME280;41295;48.518;9.206;2023-02-19T10:48:01;98047.88;;;10.25;68.85
32251;BME280;41295;48.518;9.206;2023-02-19T10:50:05;98056.03;;;10.09;69.87
32251;BME280;41295;48.518;9.206;2023-02-19T10:52:12;98050.56;;;10.20;65.61
32251;BME280;41295;48.518;9.206;2023-02-19T10:54:19;98052.34;;;10.20;65.73
32251;BME280;41295;48.518;9.206;2023-02-19T10:56:26;98059.50;;;10.10;66.14
32251;BME280;41295;48.518;9.206;2023-02-19T10:58:31;98067.16;;;10.18;67.60
32251;BME280;41295;48.518;9.206;2023-02-19T11:00:34;98057.72;;;10.12;69.09
32251;BME280;41295;48.518;9.206;2023-02-19T11:02:40;98063.84;;;10.09;69.09
32251;BME280;41295;48.518;9.206;2023-02-19T11:05:01;98059.41;;;10.13;69.67
32251;BME280;41295;48.518;9.206;2023-02-19T11:07:08;98056.59;;;10.22;69.75
32251;BME280;41295;48.518;9.206;2023-02-19T11:09:23;98059.47;;;10.11;70.21